METAR Data
IDs: Format: Raw Decoded Include TAF

Data at: 0850 UTC 21 Oct 2018

METAR for:KUNI (Albany/Ohio Univ Arp, OH, US)
Text:KUNI 210835Z AUTO 32006KT 10SM BKN036 02/M03 A3023 RMK AO2 T00211035
Temperature: 2.1°C ( 36°F)
Dewpoint: -3.5°C ( 26°F) [RH = 66%]
Pressure (altimeter):30.23 inches Hg (1023.8 mb)
Winds:from the NW (320 degrees) at 7 MPH (6 knots; 3.1 m/s)
Visibility:10 or more sm (16+ km)
Ceiling:3600 feet AGL
Clouds: broken clouds at 3600 feet AGL
QC Flag:automated observation with no human augmentation